Time;durP1;ratioP1;P1;durP2;ratioP2;P2;SDS_P1;SDS_P2;PMS_P1;PMS_P2;Temp;Humidity;BMP_temperature;BMP_pressure;BME280_temperature;BME280_humidity;BME280_pressure;Samples;Min_cycle;Max_cycle;Signal;HPM_P1;HPM_P2
2021/03/13 00:02:17;;;;;;;;;;;;;;;17.74;58.94;100973.66;5050765;28;1389;-68
2021/03/13 00:04:43;;;;;;;;;;;;;;;17.74;57.80;100961.13;5036530;28;1369;-68
2021/03/13 00:07:08;;;;;;;;;;;;;;;17.74;58.37;100958.44;5028651;28;1530;-68
2021/03/13 00:09:34;;;;;;;;;;;;;;;17.71;58.67;100956.03;5029599;28;1963;-68
2021/03/13 00:11:59;;;;;;;;;;;;;;;17.69;58.06;100955.31;5035495;28;1501;-69
2021/03/13 00:14:24;;;;;;;;;;;;;;;17.76;57.11;100951.16;5052500;28;1347;-68
2021/03/13 00:16:50;;;;;;;;;;;;;;;17.74;56.91;100946.91;5040303;28;1293;-68
2021/03/13 00:19:15;;;;;;;;;;;;;;;17.72;58.18;100957.72;5036049;28;1799;-68
2021/03/13 00:21:40;;;;;;;;;;;;;;;17.68;57.77;100961.63;5052613;28;1588;-68
2021/03/13 00:24:06;;;;;;;;;;;;;;;17.69;58.55;100947.28;5042097;28;1398;-68
2021/03/13 00:26:31;;;;;;;;;;;;;;;17.65;58.01;100948.50;5040028;28;1335;-68
2021/03/13 00:28:57;;;;;;;;;;;;;;;17.66;58.17;100947.53;5040214;28;1331;-68
2021/03/13 00:31:22;;;;;;;;;;;;;;;17.68;57.85;100945.56;5052429;28;1918;-68
2021/03/13 00:33:47;;;;;;;;;;;;;;;17.70;58.00;100930.25;5034365;28;1618;-68
2021/03/13 00:36:13;;;;;;;;;;;;;;;17.62;57.39;100924.66;5028591;28;1404;-68
2021/03/13 00:38:38;;;;;;;;;;;;;;;17.59;57.79;100936.47;5047806;28;1311;-67
2021/03/13 00:41:03;;;;;;;;;;;;;;;17.63;57.00;100926.38;5033286;28;1498;-68
2021/03/13 00:43:29;;;;;;;;;;;;;;;17.59;57.95;100938.31;5052215;28;1446;-68
2021/03/13 00:45:54;;;;;;;;;;;;;;;17.61;57.58;100933.69;5057024;28;1601;-68
2021/03/13 00:48:20;;;;;;;;;;;;;;;17.52;58.05;100919.19;5049534;28;1411;-68
2021/03/13 00:50:46;;;;;;;;;;;;;;;17.58;57.93;100917.88;5049323;28;1885;-68
2021/03/13 00:53:12;;;;;;;;;;;;;;;17.56;56.84;100922.50;5026192;28;1753;-69
2021/03/13 00:55:38;;;;;;;;;;;;;;;17.57;57.11;100914.34;5040370;28;1647;-68
2021/03/13 00:58:03;;;;;;;;;;;;;;;17.62;57.09;100911.31;5052276;28;1597;-68
2021/03/13 01:00:29;;;;;;;;;;;;;;;17.59;56.61;100890.16;5040717;28;1411;-68
2021/03/13 01:02:54;;;;;;;;;;;;;;;17.56;57.53;100909.13;5043601;28;1355;-68
2021/03/13 01:05:19;;;;;;;;;;;;;;;17.50;57.13;100884.56;5036035;28;1501;-68
2021/03/13 01:07:45;;;;;;;;;;;;;;;17.55;57.70;100881.53;5051587;28;1521;-69
2021/03/13 01:10:18;;;;;;;;;;;;;;;17.55;57.94;100886.00;5038561;28;1902;-67
2021/03/13 01:12:44;;;;;;;;;;;;;;;17.56;56.58;100877.03;5041535;28;1404;-68
2021/03/13 01:15:11;;;;;;;;;;;;;;;17.54;57.35;100877.16;5039160;28;1592;-69
2021/03/13 01:17:37;;;;;;;;;;;;;;;17.58;57.26;100883.94;5044585;28;1596;-68
2021/03/13 01:20:04;;;;;;;;;;;;;;;17.55;57.67;100881.53;5048812;28;1386;-68
2021/03/13 01:22:29;;;;;;;;;;;;;;;17.57;56.52;100870.72;5055211;28;1650;-68
2021/03/13 01:24:55;;;;;;;;;;;;;;;17.57;56.52;100860.03;5042191;28;1386;-69
2021/03/13 01:27:20;;;;;;;;;;;;;;;17.57;57.70;100860.03;5056308;28;1641;-69
2021/03/13 01:29:45;;;;;;;;;;;;;;;17.53;57.54;100853.19;5038662;28;1915;-68
2021/03/13 01:32:11;;;;;;;;;;;;;;;17.50;57.01;100836.44;5039984;28;1404;-68
2021/03/13 01:34:36;;;;;;;;;;;;;;;17.49;57.17;100834.75;5057179;28;1378;-69
2021/03/13 01:37:02;;;;;;;;;;;;;;;17.53;56.33;100831.81;5040899;28;1537;-68
2021/03/13 01:39:27;;;;;;;;;;;;;;;17.49;56.77;100834.75;5048083;28;1604;-69
2021/03/13 01:41:53;;;;;;;;;;;;;;;17.55;57.12;100832.53;5038512;28;1374;-69
2021/03/13 01:44:18;;;;;;;;;;;;;;;17.53;56.29;100843.38;5042863;28;1370;-67
2021/03/13 01:46:44;;;;;;;;;;;;;;;17.44;55.97;100836.94;5038030;28;1394;-68
2021/03/13 01:49:18;;;;;;;;;;;;;;;17.43;57.34;100840.59;5036843;28;1549;-68
2021/03/13 01:51:44;;;;;;;;;;;;;;;17.46;57.13;100837.66;5041622;28;1953;-68
2021/03/13 01:54:09;;;;;;;;;;;;;;;17.46;57.16;100840.34;5046933;28;1335;-68
2021/03/13 01:56:35;;;;;;;;;;;;;;;17.46;56.41;100834.97;5042494;28;1347;-68
2021/03/13 01:59:00;;;;;;;;;;;;;;;17.47;56.42;100833.19;5037967;28;1291;-68
2021/03/13 02:01:26;;;;;;;;;;;;;;;17.53;56.38;100829.13;5055061;28;1565;-68
2021/03/13 02:03:51;;;;;;;;;;;;;;;17.47;57.04;100826.00;5052756;28;1247;-68
2021/03/13 02:06:16;;;;;;;;;;;;;;;17.43;56.90;100829.91;5032750;28;1386;-67
2021/03/13 02:09:00;;;;;;;;;;;;;;;17.46;56.57;100829.63;5055468;28;1214;-68
2021/03/13 02:11:25;;;;;;;;;;;;;;;17.41;55.72;100818.47;5048478;28;1952;-68
2021/03/13 02:14:09;;;;;;;;;;;;;;;17.41;55.67;100826.50;5054325;28;1541;-69
2021/03/13 02:16:48;;;;;;;;;;;;;;;17.37;55.93;100814.38;5043438;28;1452;-68
2021/03/13 02:19:13;;;;;;;;;;;;;;;17.40;56.22;100816.78;5037569;28;1370;-68
2021/03/13 02:21:48;;;;;;;;;;;;;;;17.39;56.27;100819.56;5041123;28;1650;-68
2021/03/13 02:24:43;;;;;;;;;;;;;;;17.41;55.72;100807.78;5055330;28;1385;-68
2021/03/13 02:27:19;;;;;;;;;;;;;;;17.38;55.40;100797.34;5002141;28;1463;-68
2021/03/13 02:29:49;;;;;;;;;;;;;;;17.34;55.88;100800.38;5042742;28;1910;-67
2021/03/13 02:32:33;;;;;;;;;;;;;;;17.38;56.05;100810.69;5045446;28;1339;-68
2021/03/13 02:35:02;;;;;;;;;;;;;;;17.39;55.57;100807.06;5055291;28;1640;-68
2021/03/13 02:37:29;;;;;;;;;;;;;;;17.41;55.23;100810.47;5053115;28;1572;-69
2021/03/13 02:39:55;;;;;;;;;;;;;;;17.42;56.49;100800.63;5051864;28;1235;-68
2021/03/13 02:42:22;;;;;;;;;;;;;;;17.40;56.16;100803.41;5034148;28;1378;-68
2021/03/13 02:44:49;;;;;;;;;;;;;;;17.36;55.90;100807.31;5042796;28;1323;-68
2021/03/13 02:47:14;;;;;;;;;;;;;;;17.40;56.44;100806.06;5050879;28;1370;-68
2021/03/13 02:49:42;;;;;;;;;;;;;;;17.40;55.35;100789.19;5044005;28;1890;-68
2021/03/13 02:52:08;;;;;;;;;;;;;;;17.39;55.29;100780.34;5054915;28;1487;-68
2021/03/13 02:54:36;;;;;;;;;;;;;;;17.36;56.65;100779.72;5047103;28;1420;-68
2021/03/13 02:57:02;;;;;;;;;;;;;;;17.35;55.47;100784.22;5040178;28;1403;-68
2021/03/13 02:59:28;;;;;;;;;;;;;;;17.39;55.51;100796.38;5050430;28;1557;-68
2021/03/13 03:01:55;;;;;;;;;;;;;;;17.37;55.27;100784.97;5036922;22;2014;-43
2021/03/13 03:04:21;;;;;;;;;;;;;;;17.34;55.86;100793.22;5031038;28;1495;-43
2021/03/13 03:06:48;;;;;;;;;;;;;;;17.28;55.12;100781.19;5029139;28;1494;-44
2021/03/13 03:09:14;;;;;;;;;;;;;;;17.31;55.51;100788.13;5024354;28;1628;-43
2021/03/13 03:11:43;;;;;;;;;;;;;;;17.36;56.05;100785.06;5037728;22;3597;-68
2021/03/13 03:14:11;;;;;;;;;;;;;;;17.35;55.50;100786.91;4994845;28;1228;-62
2021/03/13 03:16:38;;;;;;;;;;;;;;;17.33;56.39;100786.19;5018376;28;1725;-68
2021/03/13 03:19:05;;;;;;;;;;;;;;;17.34;55.29;100785.19;4999261;28;1404;-68
2021/03/13 03:21:30;;;;;;;;;;;;;;;17.35;55.74;100773.53;5003485;28;1593;-68
2021/03/13 03:23:56;;;;;;;;;;;;;;;17.38;55.74;100775.09;4986336;28;10453;-68
2021/03/13 03:26:21;;;;;;;;;;;;;;;17.34;56.30;100766.47;5002760;28;1286;-60
2021/03/13 03:28:47;;;;;;;;;;;;;;;17.35;56.37;100778.88;5014393;28;1694;-66
2021/03/13 03:31:14;;;;;;;;;;;;;;;17.26;58.43;100772.44;5018679;28;1989;-70
2021/03/13 03:33:40;;;;;;;;;;;;;;;17.30;60.05;100767.72;5019355;28;1431;-66
2021/03/13 03:36:06;;;;;;;;;;;;;;;17.46;59.75;100748.59;5021031;28;1565;-68
2021/03/13 03:38:31;;;;;;;;;;;;;;;18.19;58.82;100752.34;5013774;28;1192;-70
2021/03/13 03:40:56;;;;;;;;;;;;;;;19.01;56.56;100772.09;4995736;28;1468;-66
2021/03/13 03:43:29;;;;;;;;;;;;;;;19.44;55.73;100762.91;4999133;28;1548;-71
2021/03/13 03:45:57;;;;;;;;;;;;;;;19.52;56.02;100767.56;4997883;28;1682;-67
2021/03/13 03:48:23;;;;;;;;;;;;;;;19.71;56.58;100750.66;4996191;28;1433;-73
2021/03/13 03:50:48;;;;;;;;;;;;;;;19.66;56.00;100764.50;5017494;28;1894;-77
2021/03/13 03:53:18;;;;;;;;;;;;;;;19.53;56.37;100763.91;4979058;28;10992;-68
2021/03/13 03:55:46;;;;;;;;;;;;;;;19.53;57.19;100774.63;4993084;28;1409;-72
2021/03/13 03:58:13;;;;;;;;;;;;;;;19.53;56.82;100775.47;4991468;28;1265;-68
2021/03/13 04:00:40;;;;;;;;;;;;;;;19.46;56.76;100775.19;4993239;28;1485;-64
2021/03/13 04:03:09;;;;;;;;;;;;;;;18.99;58.43;100776.75;4996836;28;11160;-75
2021/03/13 04:05:35;;;;;;;;;;;;;;;18.59;59.75;100790.91;5003674;28;1485;-68
2021/03/13 04:08:01;;;;;;;;;;;;;;;18.31;60.01;100781.72;4989801;28;1419;-75
2021/03/13 04:10:27;;;;;;;;;;;;;;;18.17;60.65;100781.06;4993669;28;1902;-74
2021/03/13 04:12:56;;;;;;;;;;;;;;;18.04;60.73;100785.72;5011838;28;1530;-69
2021/03/13 04:15:22;;;;;;;;;;;;;;;17.96;61.41;100801.59;4995589;28;1627;-75
2021/03/13 04:17:47;;;;;;;;;;;;;;;17.90;61.59;100800.25;4995293;28;1607;-68
2021/03/13 04:20:13;;;;;;;;;;;;;;;17.81;62.12;100801.00;5005200;28;1506;-69
2021/03/13 04:22:39;;;;;;;;;;;;;;;17.77;62.12;100804.91;4988973;28;1425;-68
2021/03/13 04:25:05;;;;;;;;;;;;;;;17.69;62.40;100802.88;5012429;28;1309;-69
2021/03/13 04:27:31;;;;;;;;;;;;;;;17.67;62.06;100802.16;4990806;28;1534;-69
2021/03/13 04:29:57;;;;;;;;;;;;;;;17.64;62.26;100813.91;4992163;28;1914;-75
2021/03/13 04:32:23;;;;;;;;;;;;;;;17.60;62.52;100817.81;5012663;28;1474;-76
2021/03/13 04:34:49;;;;;;;;;;;;;;;17.55;62.87;100811.16;5011834;28;1560;-69
2021/03/13 04:37:15;;;;;;;;;;;;;;;17.54;63.27;100799.59;4988671;28;1462;-75
2021/03/13 04:39:41;;;;;;;;;;;;;;;17.52;63.25;100798.03;4995126;28;1546;-76
2021/03/13 04:42:07;;;;;;;;;;;;;;;17.47;63.81;100787.72;4994656;28;1510;-69
2021/03/13 04:44:33;;;;;;;;;;;;;;;17.44;63.78;100780.78;5011879;28;1457;-68
2021/03/13 04:46:58;;;;;;;;;;;;;;;17.42;63.69;100777.41;4992509;28;1507;-69
2021/03/13 04:49:24;;;;;;;;;;;;;;;17.39;63.80;100779.47;4993789;28;1521;-68
2021/03/13 04:51:49;;;;;;;;;;;;;;;17.35;63.24;100770.88;4994268;28;1886;-75
2021/03/13 04:54:15;;;;;;;;;;;;;;;17.31;63.06;100788.13;5012498;28;1348;-69
2021/03/13 04:56:40;;;;;;;;;;;;;;;17.33;63.43;100770.16;5006473;28;1521;-75
2021/03/13 04:59:06;;;;;;;;;;;;;;;17.29;63.45;100760.69;5006123;28;1316;-68
2021/03/13 05:01:32;;;;;;;;;;;;;;;17.28;64.19;100754.47;5010839;28;1481;-75
2021/03/13 05:03:57;;;;;;;;;;;;;;;17.26;63.34;100758.25;4994602;28;1516;-68
2021/03/13 05:06:22;;;;;;;;;;;;;;;17.27;64.59;100755.44;4989175;28;1411;-76
2021/03/13 05:08:48;;;;;;;;;;;;;;;17.26;64.84;100768.94;4993188;28;1695;-68
2021/03/13 05:11:13;;;;;;;;;;;;;;;17.22;62.58;100780.84;4998261;28;1906;-69
2021/03/13 05:13:39;;;;;;;;;;;;;;;17.24;63.25;100779.72;5008819;28;1556;-69
2021/03/13 05:16:04;;;;;;;;;;;;;;;17.66;62.94;100776.38;5008857;28;1455;-68
2021/03/13 05:18:30;;;;;;;;;;;;;;;18.22;61.11;100761.91;5011744;28;1969;-68
2021/03/13 05:20:55;;;;;;;;;;;;;;;18.83;59.22;100767.38;5009978;28;1699;-76
2021/03/13 05:23:21;;;;;;;;;;;;;;;19.15;58.67;100766.34;5009258;28;1545;-76
2021/03/13 05:25:46;;;;;;;;;;;;;;;19.39;58.12;100774.03;5010902;28;1519;-69
2021/03/13 05:28:12;;;;;;;;;;;;;;;19.47;58.11;100770.66;5005328;28;1906;-70
2021/03/13 05:30:38;;;;;;;;;;;;;;;19.50;57.94;100772.22;5011080;28;1910;-75
2021/03/13 05:33:03;;;;;;;;;;;;;;;19.72;57.75;100766.66;5009390;28;1666;-70
2021/03/13 05:35:29;;;;;;;;;;;;;;;19.95;57.33;100777.09;5006299;28;1650;-69
2021/03/13 05:37:54;;;;;;;;;;;;;;;19.72;57.76;100779.22;5004536;28;1588;-69
2021/03/13 05:40:20;;;;;;;;;;;;;;;19.65;58.08;100777.03;5004213;28;1381;-75
2021/03/13 05:42:45;;;;;;;;;;;;;;;19.67;58.31;100783.13;5008251;28;1698;-69
2021/03/13 05:45:11;;;;;;;;;;;;;;;19.61;58.33;100796.25;5009597;28;1288;-76
2021/03/13 05:47:37;;;;;;;;;;;;;;;19.56;58.14;100790.47;5008859;28;1664;-69
2021/03/13 05:50:04;;;;;;;;;;;;;;;19.60;58.10;100797.25;5003758;28;1953;-76
2021/03/13 05:52:31;;;;;;;;;;;;;;;19.44;58.76;100801.31;5008640;28;1530;-76
2021/03/13 05:54:57;;;;;;;;;;;;;;;19.40;58.73;100799.03;5010401;28;1355;-76
2021/03/13 05:57:22;;;;;;;;;;;;;;;19.35;58.83;100793.22;5013214;28;1495;-76
2021/03/13 05:59:48;;;;;;;;;;;;;;;19.33;58.79;100805.94;5009020;28;1576;-69
2021/03/13 06:02:14;;;;;;;;;;;;;;;19.32;58.80;100805.09;5012148;28;1497;-69
2021/03/13 06:04:41;;;;;;;;;;;;;;;19.32;58.57;100805.09;5013526;28;1462;-76
2021/03/13 06:07:10;;;;;;;;;;;;;;;19.38;58.71;100812.59;5011860;28;1645;-69
2021/03/13 06:09:35;;;;;;;;;;;;;;;19.41;58.52;100806.09;5011645;28;1890;-76
2021/03/13 06:12:01;;;;;;;;;;;;;;;19.39;58.70;100798.16;5002942;28;1477;-75
2021/03/13 06:14:26;;;;;;;;;;;;;;;19.36;58.71;100793.09;5013524;28;1471;-76
2021/03/13 06:16:52;;;;;;;;;;;;;;;19.42;58.62;100795.22;5005599;28;1471;-73
2021/03/13 06:19:17;;;;;;;;;;;;;;;19.43;58.93;100807.63;4997113;28;1458;-69
2021/03/13 06:21:43;;;;;;;;;;;;;;;19.39;58.80;100806.22;4997208;28;1526;-75
2021/03/13 06:24:08;;;;;;;;;;;;;;;19.42;58.71;100816.69;4996674;28;1482;-69
2021/03/13 06:26:52;;;;;;;;;;;;;;;19.42;58.60;100813.16;5013922;28;1512;-69
2021/03/13 06:29:17;;;;;;;;;;;;;;;19.39;58.90;100827.66;5010111;28;1525;-76
2021/03/13 06:31:42;;;;;;;;;;;;;;;19.39;59.04;100816.94;4985807;28;1922;-76
2021/03/13 06:34:23;;;;;;;;;;;;;;;19.45;58.80;100820.91;5010885;28;1687;-76
2021/03/13 06:36:49;;;;;;;;;;;;;;;19.43;58.79;100823.72;5005191;28;1540;-69
2021/03/13 06:39:15;;;;;;;;;;;;;;;19.39;59.30;100833.03;4993603;28;1398;-75
2021/03/13 06:41:40;;;;;;;;;;;;;;;19.46;58.89;100838.72;5003056;28;1605;-69
2021/03/13 06:44:13;;;;;;;;;;;;;;;19.38;59.06;100828.66;5013722;28;1433;-69
2021/03/13 06:46:39;;;;;;;;;;;;;;;19.48;59.10;100845.63;4994996;28;1505;-69
2021/03/13 06:49:04;;;;;;;;;;;;;;;19.51;58.85;100847.19;4990300;28;1477;-69
2021/03/13 06:51:30;;;;;;;;;;;;;;;19.52;58.85;100848.91;4995715;28;1882;-76
2021/03/13 06:53:59;;;;;;;;;;;;;;;19.52;58.78;100853.38;4993739;28;1734;-76
2021/03/13 06:56:25;;;;;;;;;;;;;;;19.51;58.80;100857.06;5013633;28;1601;-68
2021/03/13 06:58:50;;;;;;;;;;;;;;;19.52;58.78;100861.44;5009915;28;1489;-75
2021/03/13 07:01:15;;;;;;;;;;;;;;;19.53;59.42;100857.78;5013120;28;1516;-69
2021/03/13 07:03:50;;;;;;;;;;;;;;;19.21;59.99;100840.88;4996719;28;1518;-72
2021/03/13 07:06:16;;;;;;;;;;;;;;;18.87;61.18;100848.34;4989846;28;1509;-66
2021/03/13 07:08:42;;;;;;;;;;;;;;;18.63;61.51;100854.78;5012836;28;1488;-72
2021/03/13 07:11:11;;;;;;;;;;;;;;;18.55;61.79;100862.63;5009245;28;1890;-69
2021/03/13 07:13:37;;;;;;;;;;;;;;;18.32;62.28;100859.19;4963147;28;11412;-64
2021/03/13 07:16:21;;;;;;;;;;;;;;;18.22;62.37;100872.53;4986947;28;1234;-75
2021/03/13 07:18:48;;;;;;;;;;;;;;;18.13;62.67;100869.78;4986877;28;1450;-69
2021/03/13 07:21:14;;;;;;;;;;;;;;;18.08;62.71;100892.41;4974280;28;1586;-70
2021/03/13 07:23:41;;;;;;;;;;;;;;;18.04;63.54;100898.13;4986026;28;1425;-69
2021/03/13 07:26:07;;;;;;;;;;;;;;;18.12;62.78;100894.81;4986607;28;1583;-68
2021/03/13 07:28:33;;;;;;;;;;;;;;;18.05;63.88;100910.53;4991820;28;1537;-72
2021/03/13 07:31:00;;;;;;;;;;;;;;;18.03;63.54;100885.72;4989770;28;1988;-69
2021/03/13 07:33:28;;;;;;;;;;;;;;;18.03;63.98;100885.72;4983580;28;1572;-67
2021/03/13 07:35:53;;;;;;;;;;;;;;;18.00;64.26;100891.31;4985507;28;1688;-66
2021/03/13 07:38:21;;;;;;;;;;;;;;;17.97;64.21;100889.75;4990671;28;1464;-63
2021/03/13 07:40:47;;;;;;;;;;;;;;;17.92;64.33;100883.06;4986456;28;1550;-64
2021/03/13 07:43:13;;;;;;;;;;;;;;;17.94;64.97;100886.47;4995972;28;1578;-66
2021/03/13 07:45:39;;;;;;;;;;;;;;;17.87;63.79;100884.31;4977375;28;1689;-62
2021/03/13 07:48:05;;;;;;;;;;;;;;;17.92;64.00;100909.84;4989438;28;1509;-71
2021/03/13 07:50:30;;;;;;;;;;;;;;;17.92;63.79;100896.47;4978757;28;1954;-63
2021/03/13 07:52:56;;;;;;;;;;;;;;;17.90;65.08;100901.91;4978911;28;1466;-65
2021/03/13 07:55:24;;;;;;;;;;;;;;;17.89;64.69;100901.09;4995101;28;1435;-59
2021/03/13 07:57:50;;;;;;;;;;;;;;;17.90;64.32;100891.22;4987010;28;1492;-63
2021/03/13 08:00:17;;;;;;;;;;;;;;;17.86;64.92;100890.63;4982355;28;1546;-63
2021/03/13 08:02:46;;;;;;;;;;;;;;;17.88;65.00;100877.97;5002521;28;1495;-61
2021/03/13 08:05:12;;;;;;;;;;;;;;;17.84;65.83;100886.38;4984428;28;1553;-63
2021/03/13 08:07:50;;;;;;;;;;;;;;;17.80;64.85;100880.38;4966094;28;1454;-61
2021/03/13 08:10:34;;;;;;;;;;;;;;;17.81;64.81;100876.75;4987239;28;1911;-58
2021/03/13 08:13:00;;;;;;;;;;;;;;;17.85;65.66;100886.25;4987867;28;1514;-61
2021/03/13 08:15:31;;;;;;;;;;;;;;;17.87;65.91;100878.13;4987890;28;1481;-69
2021/03/13 08:17:56;;;;;;;;;;;;;;;17.82;65.57;100881.09;4996855;28;1474;-64
2021/03/13 08:20:32;;;;;;;;;;;;;;;17.78;65.43;100879.66;4981822;28;1581;-68
2021/03/13 08:23:17;;;;;;;;;;;;;;;17.77;66.02;100886.00;4986349;28;1665;-61
2021/03/13 08:25:51;;;;;;;;;;;;;;;17.78;65.58;100887.69;4992194;28;832;-59
2021/03/13 08:28:35;;;;;;;;;;;;;;;17.78;65.41;100882.34;4986668;28;1065;-60
2021/03/13 08:31:19;;;;;;;;;;;;;;;17.83;66.05;100890.88;4986382;28;1977;-61
2021/03/13 08:33:44;;;;;;;;;;;;;;;17.78;65.87;100882.34;4987347;28;1122;-61
2021/03/13 08:36:19;;;;;;;;;;;;;;;17.74;66.09;100883.56;4985386;28;1569;-63
2021/03/13 08:38:51;;;;;;;;;;;;;;;17.78;65.78;100887.69;4988748;28;1884;-60
2021/03/13 08:41:36;;;;;;;;;;;;;;;17.82;66.58;100897.16;4989877;28;1505;-59
2021/03/13 08:44:02;;;;;;;;;;;;;;;17.83;66.57;100909.59;4982059;28;1752;-59
2021/03/13 08:46:54;;;;;;;;;;;;;;;17.88;65.62;100898.53;4988249;28;1742;-65
2021/03/13 08:49:28;;;;;;;;;;;;;;;17.79;65.78;100892.06;4956309;28;1490;-65
2021/03/13 08:52:16;;;;;;;;;;;;;;;17.77;65.36;100902.06;4982785;28;1882;-58
2021/03/13 08:54:41;;;;;;;;;;;;;;;17.80;65.74;100900.94;4982990;28;1413;-57
2021/03/13 08:57:07;;;;;;;;;;;;;;;18.01;63.62;100883.19;4987099;28;1550;-65
2021/03/13 08:59:34;;;;;;;;;;;;;;;18.38;62.75;100892.66;4988472;28;1533;-65
2021/03/13 09:02:02;;;;;;;;;;;;;;;18.69;61.74;100881.03;4979834;28;1604;-57
2021/03/13 09:04:28;;;;;;;;;;;;;;;19.19;60.25;100891.09;4980476;28;1513;-57
2021/03/13 09:06:54;;;;;;;;;;;;;;;19.38;60.40;100901.06;4982847;28;1527;-57
2021/03/13 09:09:19;;;;;;;;;;;;;;;19.42;60.81;100902.50;4985044;28;1353;-61
2021/03/13 09:11:54;;;;;;;;;;;;;;;19.48;60.37;100896.59;4989508;28;1955;-65
2021/03/13 09:14:20;;;;;;;;;;;;;;;19.57;60.44;100904.81;4988380;28;1568;-58
2021/03/13 09:16:45;;;;;;;;;;;;;;;19.70;59.94;100901.91;4988956;28;1485;-58
2021/03/13 09:19:14;;;;;;;;;;;;;;;19.80;59.56;100892.91;4989792;28;1439;-64
2021/03/13 09:21:48;;;;;;;;;;;;;;;19.64;60.45;100911.34;4971086;28;1455;-58
2021/03/13 09:24:15;;;;;;;;;;;;;;;19.17;61.66;100886.88;4989241;28;1289;-63
2021/03/13 09:26:41;;;;;;;;;;;;;;;19.30;61.17;100890.19;4991430;28;1497;-57
2021/03/13 09:29:06;;;;;;;;;;;;;;;19.17;61.52;100886.88;4989720;28;1499;-57
2021/03/13 09:31:32;;;;;;;;;;;;;;;19.07;61.60;100887.66;4988047;28;1918;-57
2021/03/13 09:34:17;;;;;;;;;;;;;;;19.19;61.17;100876.84;4991856;28;1462;-57
2021/03/13 09:36:45;;;;;;;;;;;;;;;19.31;60.80;100894.53;4993140;28;1336;-64
2021/03/13 09:39:10;;;;;;;;;;;;;;;19.35;60.57;100908.53;4988281;28;1247;-64
2021/03/13 09:41:36;;;;;;;;;;;;;;;19.50;60.23;100912.56;4993275;28;1466;-58
2021/03/13 09:44:02;;;;;;;;;;;;;;;19.81;59.59;100926.78;4987961;28;1538;-55
2021/03/13 09:46:29;;;;;;;;;;;;;;;20.00;59.00;100936.75;4988882;28;1455;-58
2021/03/13 09:48:54;;;;;;;;;;;;;;;19.92;59.59;100938.44;4990347;28;1410;-58
2021/03/13 09:51:20;;;;;;;;;;;;;;;19.70;61.29;100931.41;4989433;28;1914;-57
2021/03/13 09:53:45;;;;;;;;;;;;;;;19.20;63.03;100924.97;4991106;28;1478;-62
2021/03/13 09:56:11;;;;;;;;;;;;;;;18.86;63.95;100927.88;4992122;28;1532;-60
2021/03/13 09:58:36;;;;;;;;;;;;;;;18.62;64.60;100922.75;4986329;28;1443;-59
2021/03/13 10:01:02;;;;;;;;;;;;;;;18.48;64.56;100917.66;4985599;28;1435;-60
2021/03/13 10:03:28;;;;;;;;;;;;;;;18.38;65.10;100919.41;4987892;28;1628;-57
2021/03/13 10:05:54;;;;;;;;;;;;;;;18.51;64.61;100925.47;4987162;28;1540;-57
2021/03/13 10:08:19;;;;;;;;;;;;;;;18.82;63.82;100921.09;4985942;28;1696;-57
2021/03/13 10:10:47;;;;;;;;;;;;;;;19.15;62.86;100927.19;4982843;28;1961;-63
2021/03/13 10:13:14;;;;;;;;;;;;;;;19.30;62.34;100918.81;4990305;28;1815;-58
2021/03/13 10:15:39;;;;;;;;;;;;;;;19.53;61.75;100911.44;4982903;28;1739;-58
2021/03/13 10:18:15;;;;;;;;;;;;;;;19.66;61.61;100917.41;4988921;28;1709;-63
2021/03/13 10:20:47;;;;;;;;;;;;;;;19.62;61.88;100921.34;4996805;28;1540;-58
2021/03/13 10:23:14;;;;;;;;;;;;;;;19.73;61.52;100920.44;4991607;28;1479;-57
2021/03/13 10:25:40;;;;;;;;;;;;;;;19.63;61.62;100931.94;4993512;28;1283;-63
2021/03/13 10:28:12;;;;;;;;;;;;;;;19.42;62.03;100926.63;4988228;28;1766;-57
2021/03/13 10:30:39;;;;;;;;;;;;;;;19.37;62.32;100938.75;4991752;28;1910;-62
2021/03/13 10:33:04;;;;;;;;;;;;;;;19.25;62.56;100940.66;4991727;28;1643;-58
2021/03/13 10:35:31;;;;;;;;;;;;;;;19.26;62.63;100950.41;4986761;28;1479;-62
2021/03/13 10:37:58;;;;;;;;;;;;;;;19.27;62.56;100942.22;4984314;28;1474;-64
2021/03/13 10:40:30;;;;;;;;;;;;;;;19.24;62.40;100929.09;4984369;28;1198;-62
2021/03/13 10:43:11;;;;;;;;;;;;;;;19.42;62.24;100928.47;4990753;28;1792;-57
2021/03/13 10:45:36;;;;;;;;;;;;;;;19.43;62.17;100933.69;4991201;28;1742;-63
2021/03/13 10:48:06;;;;;;;;;;;;;;;19.47;62.09;100915.50;4989280;28;1767;-60
2021/03/13 10:50:31;;;;;;;;;;;;;;;19.47;62.02;100936.94;4987262;28;1890;-60
2021/03/13 10:52:56;;;;;;;;;;;;;;;19.60;61.83;100932.22;4974118;28;1572;-64
2021/03/13 10:55:37;;;;;;;;;;;;;;;19.58;61.74;100927.97;4995275;28;1623;-59
2021/03/13 10:58:02;;;;;;;;;;;;;;;19.55;62.13;100936.28;4976372;28;1582;-60
2021/03/13 11:00:27;;;;;;;;;;;;;;;19.66;62.16;100957.66;4999110;28;1678;-61
2021/03/13 11:02:53;;;;;;;;;;;;;;;19.68;61.70;100936.91;4992326;28;1541;-61
2021/03/13 11:05:18;;;;;;;;;;;;;;;19.74;61.51;100925.66;4972303;28;1581;-63
2021/03/13 11:07:43;;;;;;;;;;;;;;;19.70;61.67;100926.03;4991704;28;1564;-61
2021/03/13 11:10:09;;;;;;;;;;;;;;;19.76;61.66;100918.31;4994590;28;1902;-63
2021/03/13 11:12:34;;;;;;;;;;;;;;;19.71;61.68;100923.25;4985143;28;1640;-62
2021/03/13 11:15:00;;;;;;;;;;;;;;;19.64;61.59;100916.72;4986185;28;1478;-63
2021/03/13 11:17:25;;;;;;;;;;;;;;;19.62;61.93;100934.78;4984164;28;1600;-64
2021/03/13 11:19:50;;;;;;;;;;;;;;;19.64;61.49;100911.34;4990431;28;1349;-59
2021/03/13 11:22:16;;;;;;;;;;;;;;;19.60;61.82;100910.75;4991301;28;1526;-72
2021/03/13 11:24:41;;;;;;;;;;;;;;;19.72;61.79;100922.25;4991970;28;1726;-56
2021/03/13 11:27:07;;;;;;;;;;;;;;;19.81;61.53;100934.84;4994876;28;1738;-63
2021/03/13 11:29:32;;;;;;;;;;;;;;;19.92;61.51;100928.53;4981657;28;1628;-63
2021/03/13 11:31:57;;;;;;;;;;;;;;;19.98;61.61;100925.28;4977241;28;10796;-63
2021/03/13 11:34:23;;;;;;;;;;;;;;;19.95;61.67;100913.97;5008781;28;1593;-68
2021/03/13 11:36:49;;;;;;;;;;;;;;;19.98;61.20;100917.25;5010182;28;1683;-64
2021/03/13 11:39:15;;;;;;;;;;;;;;;19.93;61.21;100913.28;5008809;28;1465;-64
2021/03/13 11:41:41;;;;;;;;;;;;;;;19.90;61.32;100919.78;5006300;28;1715;-63
2021/03/13 11:44:06;;;;;;;;;;;;;;;19.83;61.07;100915.94;5010435;28;1663;-64
2021/03/13 11:46:31;;;;;;;;;;;;;;;19.68;61.73;100923.50;4991022;28;1576;-63
2021/03/13 11:48:57;;;;;;;;;;;;;;;19.65;62.00;100913.03;5007863;28;1493;-67
2021/03/13 11:51:23;;;;;;;;;;;;;;;19.58;62.03;100936.03;5012479;28;1894;-65
2021/03/13 11:53:48;;;;;;;;;;;;;;;19.57;62.09;100921.75;4988416;28;1540;-61
2021/03/13 11:56:13;;;;;;;;;;;;;;;19.55;61.67;100925.56;5006551;28;1564;-63
2021/03/13 11:58:39;;;;;;;;;;;;;;;19.51;62.02;100938.38;5008746;28;1604;-63
2021/03/13 12:01:04;;;;;;;;;;;;;;;19.56;62.18;100935.31;5006046;28;1422;-61
2021/03/13 12:03:30;;;;;;;;;;;;;;;19.60;62.01;100952.84;5008676;28;1589;-64
2021/03/13 12:05:55;;;;;;;;;;;;;;;19.63;62.16;100952.56;5011724;28;1482;-66
2021/03/13 12:08:20;;;;;;;;;;;;;;;19.58;61.73;100952.13;5006097;28;1599;-66
2021/03/13 12:10:46;;;;;;;;;;;;;;;19.55;62.09;100947.84;5008749;28;1894;-71
2021/03/13 12:13:11;;;;;;;;;;;;;;;19.67;61.94;100953.97;4992857;28;1958;-62
2021/03/13 12:15:36;;;;;;;;;;;;;;;19.72;61.32;100945.56;5010506;28;1607;-63
2021/03/13 12:18:02;;;;;;;;;;;;;;;19.86;60.68;100943.34;5006509;28;1583;-61
2021/03/13 12:20:27;;;;;;;;;;;;;;;19.93;60.89;100937.44;5007944;28;1530;-64
2021/03/13 12:22:53;;;;;;;;;;;;;;;20.25;59.11;100932.69;5003880;28;1525;-62
2021/03/13 12:25:19;;;;;;;;;;;;;;;20.31;58.45;100920.53;5008652;28;1580;-63
2021/03/13 12:27:44;;;;;;;;;;;;;;;20.44;58.06;100912.19;5008499;28;1533;-65
2021/03/13 12:30:11;;;;;;;;;;;;;;;20.40;57.79;100921.53;5010442;28;1914;-63
2021/03/13 12:32:38;;;;;;;;;;;;;;;20.26;57.54;100906.69;4990107;28;1509;-64
2021/03/13 12:35:03;;;;;;;;;;;;;;;19.97;58.30;100918.22;5007949;28;1528;-63
2021/03/13 12:37:30;;;;;;;;;;;;;;;19.70;58.89;100900.06;5006069;28;1627;-62
2021/03/13 12:39:55;;;;;;;;;;;;;;;19.70;58.33;100918.84;5010695;28;1592;-65
2021/03/13 12:42:20;;;;;;;;;;;;;;;19.30;58.26;100925.03;5006799;28;1679;-64
2021/03/13 12:44:46;;;;;;;;;;;;;;;18.90;60.14;100931.16;5009557;28;1559;-60
2021/03/13 12:47:11;;;;;;;;;;;;;;;18.58;61.31;100918.63;5006164;28;1889;-67